Time;durP1;ratioP1;P1;durP2;ratioP2;P2;SDS_P1;SDS_P2;PMS_P1;PMS_P2;Temp;Humidity;BMP_temperature;BMP_pressure;BME280_temperature;BME280_humidity;BME280_pressure;Samples;Min_cycle;Max_cycle;Signal;HPM_P1;HPM_P2
2022/09/12 00:00:47;;;;;;;6.43;5.78;;;;;;;14.48;72.16;96862.38;6191125;23;20027;-76
2022/09/12 00:03:15;;;;;;;6.05;5.47;;;;;;;14.47;72.50;96853.69;6191395;23;20462;-78
2022/09/12 00:05:43;;;;;;;6.38;5.63;;;;;;;14.49;72.61;96858.75;6192508;23;20025;-76
2022/09/12 00:08:11;;;;;;;8.10;6.47;;;;;;;14.49;72.33;96861.38;6191851;23;20028;-76
2022/09/12 00:10:42;;;;;;;9.70;6.70;;;;;;;14.51;72.44;96859.34;6190222;23;20017;-78
2022/09/12 00:13:11;;;;;;;7.18;6.20;;;;;;;14.53;72.38;96857.34;6191253;23;20024;-78
2022/09/12 00:15:39;;;;;;;6.97;6.05;;;;;;;14.52;72.10;96858.31;6191214;23;20401;-77
2022/09/12 00:18:08;;;;;;;5.90;5.40;;;;;;;14.53;72.06;96865.22;6190671;23;20017;-77
2022/09/12 00:20:35;;;;;;;8.90;5.97;;;;;;;14.53;72.12;96862.59;6189607;23;20027;-78
2022/09/12 00:23:03;;;;;;;6.75;6.13;;;;;;;14.52;72.17;96863.56;6190942;23;20104;-77
2022/09/12 00:25:30;;;;;;;6.85;5.75;;;;;;;14.50;71.80;96853.28;6190730;23;20629;-78
2022/09/12 00:27:59;;;;;;;7.00;6.28;;;;;;;14.46;71.85;96856.53;6190159;23;20036;-76
2022/09/12 00:30:27;;;;;;;8.05;6.07;;;;;;;14.44;71.82;96864.59;6189983;23;20017;-76
2022/09/12 00:32:54;;;;;;;6.57;5.88;;;;;;;14.43;72.09;96855.13;6190864;23;20027;-76
2022/09/12 00:35:22;;;;;;;6.63;6.03;;;;;;;14.43;71.93;96858.53;6190081;23;20024;-76
2022/09/12 00:37:49;;;;;;;6.45;5.78;;;;;;;14.42;71.62;96854.28;6190636;23;20043;-76
2022/09/12 00:40:17;;;;;;;7.78;5.80;;;;;;;14.40;71.52;96853.66;6189709;23;20028;-78
2022/09/12 00:42:44;;;;;;;7.13;5.85;;;;;;;14.39;71.57;96844.19;6190580;23;20036;-77
2022/09/12 00:45:22;;;;;;;8.90;6.55;;;;;;;14.37;71.93;96848.84;6190679;23;20491;-77
2022/09/12 00:47:50;;;;;;;7.40;6.63;;;;;;;14.36;71.67;96844.56;6191516;23;20025;-78
2022/09/12 00:50:18;;;;;;;6.32;5.72;;;;;;;14.38;71.72;96839.94;6185057;23;20040;-79
2022/09/12 00:52:50;;;;;;;6.80;5.45;;;;;;;14.41;72.80;96839.56;6185977;23;20045;-80
2022/09/12 00:55:22;;;;;;;6.90;6.10;;;;;;;14.42;72.19;96838.53;6188567;23;20020;-80
2022/09/12 00:57:53;;;;;;;5.75;5.25;;;;;;;14.46;72.14;96835.53;6188991;23;20100;-80
2022/09/12 01:00:25;;;;;;;7.45;5.70;;;;;;;14.46;72.55;96831.06;6187974;23;20021;-80
2022/09/12 01:02:56;;;;;;;8.13;6.40;;;;;;;14.43;71.56;96829.66;6188947;23;20100;-80
2022/09/12 01:05:28;;;;;;;7.75;6.47;;;;;;;14.41;71.51;96825.63;6189815;23;20028;-80
2022/09/12 01:07:56;;;;;;;7.85;7.13;;;;;;;14.37;71.62;96821.78;6188974;23;20017;-80
2022/09/12 01:10:24;;;;;;;6.65;5.85;;;;;;;14.35;71.84;96821.19;6188620;23;20104;-79
2022/09/12 01:12:52;;;;;;;7.82;6.72;;;;;;;14.34;71.58;96822.16;6187951;23;20031;-79
2022/09/12 01:15:19;;;;;;;7.63;6.25;;;;;;;14.32;71.63;96819.75;6188390;23;20028;-80
2022/09/12 01:18:01;;;;;;;7.75;6.82;;;;;;;14.34;71.64;96816.91;6188474;23;20031;-80
2022/09/12 01:20:46;;;;;;;7.22;6.45;;;;;;;14.31;71.47;96818.13;6188090;23;20017;-80
2022/09/12 01:23:43;;;;;;;7.03;6.32;;;;;;;14.27;71.48;96816.91;6188517;23;20059;-80
2022/09/12 01:26:38;;;;;;;6.43;5.88;;;;;;;14.28;71.74;96808.06;6187523;23;20017;-79
2022/09/12 01:29:25;;;;;;;7.85;6.78;;;;;;;14.29;71.51;96812.28;6188740;23;20077;-80
2022/09/12 01:32:00;;;;;;;9.18;7.18;;;;;;;14.25;71.17;96808.44;6188492;23;20028;-79
2022/09/12 01:34:38;;;;;;;7.13;6.40;;;;;;;14.19;71.19;96801.34;6188474;23;20021;-80
2022/09/12 01:37:14;;;;;;;7.45;6.60;;;;;;;14.16;71.26;96796.50;6188846;23;20024;-80
2022/09/12 01:39:52;;;;;;;8.82;6.22;;;;;;;14.12;71.37;96790.03;6190528;23;20352;-80
2022/09/12 01:42:26;;;;;;;10.05;6.35;;;;;;;14.08;71.32;96799.31;6188706;23;20032;-80
2022/09/12 01:45:02;;;;;;;8.02;6.35;;;;;;;14.05;71.49;96799.72;6200265;23;20073;-80
2022/09/12 01:47:39;;;;;;;7.57;6.88;;;;;;;14.01;71.49;96797.50;6203402;23;20072;-80
2022/09/12 01:50:10;;;;;;;7.95;6.28;;;;;;;14.01;71.53;96799.31;6194488;23;20027;-80
2022/09/12 01:52:44;;;;;;;7.18;6.47;;;;;;;14.01;71.86;96792.28;6188947;23;20032;-80
2022/09/12 01:55:18;;;;;;;7.47;6.70;;;;;;;13.99;71.28;96789.03;6188911;23;20039;-80
2022/09/12 01:57:52;;;;;;;9.13;7.47;;;;;;;13.95;71.47;96793.06;6188927;23;20017;-80
2022/09/12 02:00:20;;;;;;;9.95;7.35;;;;;;;13.93;71.37;96784.56;6186635;23;20029;-80
2022/09/12 02:02:53;;;;;;;7.95;7.07;;;;;;;13.90;71.60;96794.63;6187627;23;20035;-80
2022/09/12 02:05:28;;;;;;;8.52;7.72;;;;;;;13.84;71.62;96788.38;6189668;23;20366;-79
2022/09/12 02:08:02;;;;;;;9.35;7.18;;;;;;;13.80;71.66;96789.78;6188184;23;20025;-79
2022/09/12 02:10:33;;;;;;;7.93;6.40;;;;;;;13.78;71.71;96787.34;6186499;23;20014;-79
2022/09/12 02:13:08;;;;;;;10.48;7.32;;;;;;;13.76;71.65;96783.31;6188440;23;20024;-80
2022/09/12 02:15:39;;;;;;;8.15;6.70;;;;;;;13.72;71.59;96782.09;6186548;23;20111;-79
2022/09/12 02:18:14;;;;;;;8.10;7.27;;;;;;;13.69;72.00;96787.75;6187468;23;20092;-80
2022/09/12 02:20:43;;;;;;;8.68;6.63;;;;;;;13.66;71.72;96785.50;6185850;23;20259;-79
2022/09/12 02:23:19;;;;;;;7.07;6.38;;;;;;;13.64;71.81;96785.69;6186152;23;20374;-80
2022/09/12 02:25:50;;;;;;;9.77;6.93;;;;;;;13.62;71.77;96779.03;6185316;23;20028;-80
2022/09/12 02:28:23;;;;;;;8.10;6.38;;;;;;;13.58;72.10;96781.25;6183838;23;20025;-79
2022/09/12 02:30:59;;;;;;;7.93;7.13;;;;;;;13.56;71.96;96784.06;6185192;23;20021;-80
2022/09/12 02:33:37;;;;;;;7.32;6.63;;;;;;;13.56;72.39;96778.81;6186100;23;20021;-80
2022/09/12 02:36:13;;;;;;;9.43;6.88;;;;;;;13.54;72.25;96772.94;6187093;23;20040;-80
2022/09/12 02:38:44;;;;;;;10.32;6.80;;;;;;;13.51;72.24;96781.22;6189630;23;20100;-79
2022/09/12 02:41:15;;;;;;;6.30;5.75;;;;;;;13.54;73.15;96775.56;6209241;23;20069;-80
2022/09/12 02:43:43;;;;;;;7.90;6.85;;;;;;;13.60;74.68;96782.66;6188454;23;20020;-80
2022/09/12 02:46:16;;;;;;;8.02;6.45;;;;;;;13.64;72.73;96780.44;6189666;23;20024;-80
2022/09/12 02:48:45;;;;;;;7.82;6.45;;;;;;;13.63;72.23;96783.28;6197472;23;20072;-79
2022/09/12 02:51:13;;;;;;;7.10;6.40;;;;;;;13.58;72.21;96776.81;6205302;23;20021;-80
2022/09/12 02:53:42;;;;;;;7.40;6.45;;;;;;;13.56;72.01;96770.94;6194559;23;20021;-80
2022/09/12 02:56:17;;;;;;;6.68;5.78;;;;;;;13.52;72.54;96774.97;6188076;23;20100;-80
2022/09/12 02:58:45;;;;;;;7.40;5.93;;;;;;;13.51;71.86;96769.91;6188255;23;20017;-80
2022/09/12 03:01:27;;;;;;;7.45;6.65;;;;;;;13.48;71.80;96772.94;6187402;23;20021;-80
2022/09/12 03:04:22;;;;;;;7.80;6.63;;;;;;;13.46;72.02;96775.75;6188829;23;20021;-79
2022/09/12 03:07:01;;;;;;;8.50;6.22;;;;;;;13.47;72.36;96763.44;6188410;23;20029;-80
2022/09/12 03:09:37;;;;;;;8.23;6.78;;;;;;;13.48;71.82;96765.06;6187904;23;20020;-79
2022/09/12 03:12:16;;;;;;;7.53;6.72;;;;;;;13.48;71.82;96758.00;6187281;23;20019;-80
2022/09/12 03:15:06;;;;;;;9.32;6.70;;;;;;;13.48;72.02;96763.25;6188598;23;20021;-80
2022/09/12 03:17:47;;;;;;;7.55;6.75;;;;;;;13.50;72.15;96761.25;6188259;23;20021;-80
2022/09/12 03:20:28;;;;;;;6.32;5.82;;;;;;;13.51;72.36;96757.63;6187369;23;20021;-80
2022/09/12 03:23:00;;;;;;;8.65;6.75;;;;;;;13.56;73.24;96768.31;6188970;23;20045;-80
2022/09/12 03:25:32;;;;;;;8.63;7.03;;;;;;;13.62;75.36;96760.66;6188040;23;20488;-80
2022/09/12 03:28:06;;;;;;;10.37;7.37;;;;;;;13.60;72.69;96759.06;6188951;23;20023;-80
2022/09/12 03:30:38;;;;;;;7.97;7.18;;;;;;;13.58;72.60;96757.66;6189073;23;20269;-80
2022/09/12 03:33:05;;;;;;;9.18;8.15;;;;;;;13.53;72.33;96760.84;6188662;23;20023;-80
2022/09/12 03:35:34;;;;;;;7.32;6.43;;;;;;;13.55;73.61;96761.44;6187527;23;20076;-80
2022/09/12 03:38:02;;;;;;;8.20;7.15;;;;;;;13.54;72.52;96767.72;6187528;23;20023;-80
2022/09/12 03:40:29;;;;;;;7.93;7.15;;;;;;;13.50;72.12;96761.25;6186712;23;20025;-80
2022/09/12 03:42:57;;;;;;;8.82;7.93;;;;;;;13.44;71.88;96764.63;6187792;23;20353;-79
2022/09/12 03:45:24;;;;;;;9.98;7.88;;;;;;;13.40;72.04;96758.16;6187873;23;20025;-80
2022/09/12 03:47:52;;;;;;;7.60;6.80;;;;;;;13.41;72.23;96765.03;6186371;23;20029;-80
2022/09/12 03:50:20;;;;;;;8.07;6.95;;;;;;;13.42;71.90;96757.97;6185280;23;20020;-80
2022/09/12 03:52:49;;;;;;;7.55;6.80;;;;;;;13.44;72.80;96767.25;6186104;23;20017;-79
2022/09/12 03:55:17;;;;;;;9.10;7.15;;;;;;;13.50;73.96;96766.47;6186055;23;20016;-80
2022/09/12 03:57:44;;;;;;;7.07;6.38;;;;;;;13.56;74.05;96757.84;6186153;23;20137;-80
2022/09/12 04:00:12;;;;;;;7.15;6.45;;;;;;;13.62;74.98;96765.91;6187187;23;20025;-80
2022/09/12 04:02:46;;;;;;;10.07;7.68;;;;;;;13.57;72.82;96763.88;6186734;23;20017;-80
2022/09/12 04:05:13;;;;;;;7.60;6.78;;;;;;;13.52;72.61;96766.28;6186861;23;20017;-79
2022/09/12 04:07:41;;;;;;;8.35;6.82;;;;;;;13.46;72.53;96757.41;6187561;23;20028;-80
2022/09/12 04:10:10;;;;;;;8.57;7.03;;;;;;;13.46;72.53;96762.63;6186210;23;20044;-80
2022/09/12 04:12:38;;;;;;;8.48;7.28;;;;;;;13.50;73.52;96753.38;6187113;23;20479;-79
2022/09/12 04:15:07;;;;;;;8.75;7.05;;;;;;;13.56;75.25;96747.34;6186935;23;20025;-79
2022/09/12 04:17:35;;;;;;;8.70;7.78;;;;;;;13.57;73.24;96753.41;6187107;23;20021;-80
2022/09/12 04:20:02;;;;;;;7.47;6.65;;;;;;;13.56;73.11;96751.81;6185143;23;20028;-78
2022/09/12 04:22:31;;;;;;;7.18;6.47;;;;;;;13.56;74.03;96747.34;6185638;23;20028;-80
2022/09/12 04:24:59;;;;;;;8.32;7.38;;;;;;;13.55;72.95;96745.72;6185584;23;20029;-80
2022/09/12 04:27:28;;;;;;;7.90;7.10;;;;;;;13.57;74.06;96762.06;6185374;23;20099;-80
2022/09/12 04:29:56;;;;;;;8.27;7.47;;;;;;;13.59;73.71;96759.25;6185258;23;20027;-80
2022/09/12 04:32:23;;;;;;;9.32;7.38;;;;;;;13.57;72.63;96764.69;6184868;23;20020;-79
2022/09/12 04:34:52;;;;;;;9.88;7.57;;;;;;;13.54;72.36;96757.22;6186003;23;20017;-80
2022/09/12 04:37:20;;;;;;;9.50;7.38;;;;;;;13.55;73.78;96753.59;6185413;23;20097;-80
2022/09/12 04:39:48;;;;;;;8.68;7.13;;;;;;;13.60;74.78;96751.22;6185570;23;20036;-80
2022/09/12 04:42:16;;;;;;;12.65;8.98;;;;;;;13.62;73.16;96766.72;6185334;23;20100;-79
2022/09/12 04:44:45;;;;;;;9.02;7.35;;;;;;;13.64;74.82;96756.03;6185867;23;20020;-80
2022/09/12 04:47:12;;;;;;;8.38;7.57;;;;;;;13.69;76.14;96764.16;6186140;23;20032;-79
2022/09/12 04:49:40;;;;;;;8.25;7.03;;;;;;;13.73;75.55;96757.47;6185238;23;20025;-80
2022/09/12 04:52:07;;;;;;;8.05;7.20;;;;;;;13.69;74.76;96759.69;6184960;23;20027;-80
2022/09/12 04:54:35;;;;;;;8.57;7.32;;;;;;;13.64;73.83;96759.47;6185440;23;20040;-80
2022/09/12 04:57:03;;;;;;;9.95;8.10;;;;;;;13.58;73.17;96755.84;6185655;23;20021;-80
2022/09/12 04:59:30;;;;;;;10.25;7.72;;;;;;;13.52;72.14;96761.84;6185542;23;20021;-79
2022/09/12 05:01:59;;;;;;;9.02;7.57;;;;;;;13.50;72.26;96760.44;6184118;23;20081;-81
2022/09/12 05:04:27;;;;;;;7.53;6.82;;;;;;;13.52;73.48;96756.63;6184974;23;20408;-79
2022/09/12 05:06:54;;;;;;;8.13;7.32;;;;;;;13.58;74.87;96761.06;6186139;23;20024;-80
2022/09/12 05:09:22;;;;;;;8.65;6.63;;;;;;;13.59;73.88;96751.41;6195957;23;20062;-80
2022/09/12 05:11:49;;;;;;;8.70;7.82;;;;;;;13.59;73.17;96756.63;6196219;23;20039;-80
2022/09/12 05:14:33;;;;;;;8.40;6.95;;;;;;;13.63;75.06;96759.69;6188266;23;20036;-79
2022/09/12 05:17:04;;;;;;;9.95;7.32;;;;;;;13.68;75.79;96754.66;6187308;23;20024;-79
2022/09/12 05:19:32;;;;;;;10.57;8.48;;;;;;;13.63;72.91;96757.06;6187340;23;20412;-80
2022/09/12 05:22:00;;;;;;;12.73;9.63;;;;;;;13.53;72.16;96760.84;6190612;23;20025;-80
2022/09/12 05:24:27;;;;;;;12.02;9.57;;;;;;;13.48;72.30;96763.25;6203629;23;20025;-79
2022/09/12 05:26:55;;;;;;;16.70;11.30;;;;;;;13.45;71.87;96765.47;6196772;23;20027;-79
2022/09/12 05:29:23;;;;;;;14.50;10.15;;;;;;;13.39;71.88;96764.44;6187866;23;20021;-80
2022/09/12 05:31:52;;;;;;;17.85;11.38;;;;;;;13.34;71.81;96766.84;6196643;23;20076;-79
2022/09/12 05:34:21;;;;;;;19.40;10.95;;;;;;;13.31;71.94;96761.97;6187438;23;20442;-79
2022/09/12 05:36:48;;;;;;;16.85;10.23;;;;;;;13.29;71.89;96766.59;6186511;23;20285;-79
2022/09/12 05:39:17;;;;;;;16.15;11.00;;;;;;;13.27;72.15;96769.41;6186940;23;20021;-80
2022/09/12 05:41:46;;;;;;;14.98;10.73;;;;;;;13.27;72.24;96768.56;6185523;23;20020;-79
2022/09/12 05:44:14;;;;;;;14.07;10.15;;;;;;;13.27;72.43;96771.19;6186385;23;20076;-79
2022/09/12 05:46:43;;;;;;;17.15;10.57;;;;;;;13.27;72.50;96779.03;6186492;23;20027;-80
2022/09/12 05:49:13;;;;;;;14.73;10.25;;;;;;;13.24;72.76;96772.38;6187297;23;20430;-80
2022/09/12 05:51:44;;;;;;;17.10;10.57;;;;;;;13.24;72.81;96775.00;6185845;23;20569;-79
2022/09/12 05:54:14;;;;;;;15.85;10.10;;;;;;;13.27;73.23;96785.13;6187571;23;20072;-79
2022/09/12 05:56:43;;;;;;;10.38;8.57;;;;;;;13.36;75.26;96783.16;6192854;23;20005;-80
2022/09/12 05:59:13;;;;;;;11.65;8.85;;;;;;;13.45;74.04;96776.75;6198919;23;20020;-80
2022/09/12 06:01:40;;;;;;;13.32;8.65;;;;;;;13.47;73.93;96785.22;6200519;23;20029;-80
2022/09/12 06:04:09;;;;;;;10.48;8.25;;;;;;;13.51;73.59;96775.16;6199118;23;20052;-80
2022/09/12 06:06:40;;;;;;;14.50;9.40;;;;;;;13.52;73.00;96782.81;6202351;23;20029;-80
2022/09/12 06:09:09;;;;;;;13.43;9.50;;;;;;;13.50;72.92;96781.41;6201183;23;20021;-80
2022/09/12 06:11:40;;;;;;;14.70;8.98;;;;;;;13.48;72.62;96780.78;6204692;23;20024;-81
2022/09/12 06:14:09;;;;;;;16.80;9.38;;;;;;;13.46;72.81;96783.59;6205957;23;20089;-80
2022/09/12 06:16:37;;;;;;;15.00;8.95;;;;;;;13.44;72.79;96780.38;6207397;23;20029;-80
2022/09/12 06:19:07;;;;;;;14.98;10.20;;;;;;;13.43;72.85;96778.75;6209360;23;20016;-80
2022/09/12 06:21:36;;;;;;;16.65;10.30;;;;;;;13.43;73.13;96778.75;6204821;23;20032;-80
2022/09/12 06:24:04;;;;;;;13.40;10.10;;;;;;;13.44;72.99;96780.38;6204255;23;20047;-80
2022/09/12 06:26:33;;;;;;;19.10;12.02;;;;;;;13.46;73.26;96772.31;6205339;23;20017;-80
2022/09/12 06:29:01;;;;;;;16.70;10.55;;;;;;;13.52;73.09;96774.97;6211525;23;20044;-80
2022/09/12 06:31:32;;;;;;;16.10;10.73;;;;;;;13.58;73.31;96776.81;6209884;23;20005;-80
2022/09/12 06:34:01;;;;;;;15.88;10.73;;;;;;;13.68;73.49;96773.00;6213288;23;20029;-80
2022/09/12 06:36:30;;;;;;;13.98;9.68;;;;;;;13.78;73.57;96769.00;6210868;23;20036;-80
2022/09/12 06:39:02;;;;;;;19.42;10.52;;;;;;;13.92;73.35;96764.59;6208931;23;20051;-80
2022/09/12 06:41:30;;;;;;;17.65;9.15;;;;;;;14.08;73.16;96770.47;6207067;23;20016;-80
2022/09/12 06:44:00;;;;;;;17.65;9.23;;;;;;;14.25;73.00;96766.44;6210665;23;20072;-80
2022/09/12 06:46:29;;;;;;;10.48;7.80;;;;;;;14.42;72.72;96759.78;6210525;23;20057;-80
2022/09/12 06:48:59;;;;;;;11.75;7.82;;;;;;;14.66;73.21;96764.69;6208358;23;20029;-77
2022/09/12 06:51:27;;;;;;;11.20;9.10;;;;;;;14.89;73.41;96769.50;6194415;23;20404;-79
2022/09/12 06:53:56;;;;;;;11.02;8.43;;;;;;;15.10;73.72;96769.25;6195634;23;20348;-78
2022/09/12 06:56:26;;;;;;;13.73;8.40;;;;;;;15.31;73.63;96776.06;6194539;23;20103;-77
2022/09/12 06:58:56;;;;;;;10.68;7.88;;;;;;;15.51;73.12;96775.19;6193052;23;20036;-78
2022/09/12 07:01:27;;;;;;;10.88;7.68;;;;;;;15.69;72.22;96774.50;6192500;23;20112;-77
2022/09/12 07:03:56;;;;;;;9.10;7.72;;;;;;;15.90;71.80;96766.34;6194288;23;20063;-78
2022/09/12 07:06:30;;;;;;;9.95;7.93;;;;;;;16.10;72.75;96773.31;6194417;23;20060;-82
2022/09/12 07:08:58;;;;;;;8.68;7.72;;;;;;;16.30;73.25;96767.91;6194776;23;20052;-78
2022/09/12 07:11:28;;;;;;;9.10;7.90;;;;;;;16.50;70.76;96770.38;6193771;23;20338;-76
2022/09/12 07:13:56;;;;;;;9.35;7.20;;;;;;;16.68;69.78;96771.25;6194966;23;20108;-80
2022/09/12 07:16:25;;;;;;;8.32;7.28;;;;;;;16.85;70.85;96760.97;6194217;23;20405;-76
2022/09/12 07:18:54;;;;;;;14.55;8.40;;;;;;;17.00;70.29;96762.47;6193410;23;20017;-77
2022/09/12 07:21:22;;;;;;;10.15;8.05;;;;;;;17.14;69.85;96763.91;6193342;23;20021;-77
2022/09/12 07:23:50;;;;;;;11.45;8.65;;;;;;;17.30;69.90;96767.81;6194201;23;20357;-77
2022/09/12 07:26:18;;;;;;;11.07;9.23;;;;;;;17.49;68.72;96771.25;6191166;23;20488;-76
2022/09/12 07:28:50;;;;;;;11.77;9.68;;;;;;;17.68;69.27;96770.19;6190576;23;20027;-77
2022/09/12 07:31:19;;;;;;;13.40;10.82;;;;;;;17.85;66.26;96773.06;6189377;23;20025;-77
2022/09/12 07:33:49;;;;;;;14.20;11.55;;;;;;;18.00;64.44;96767.38;6191151;23;20063;-76
2022/09/12 07:36:24;;;;;;;13.18;9.93;;;;;;;18.19;64.56;96770.78;6193918;23;20052;-75
2022/09/12 07:38:55;;;;;;;13.07;10.82;;;;;;;18.40;66.53;96766.78;6193483;23;20032;-78
2022/09/12 07:41:26;;;;;;;11.10;9.02;;;;;;;18.61;65.94;96769.94;6189978;23;20033;-77
2022/09/12 07:43:55;;;;;;;9.10;7.78;;;;;;;18.79;66.05;96764.56;6193829;23;20051;-77
2022/09/12 07:46:23;;;;;;;9.02;8.07;;;;;;;18.99;64.68;96766.03;6193398;23;20077;-81
2022/09/12 07:48:54;;;;;;;10.15;8.10;;;;;;;19.19;65.35;96769.13;6191913;23;20020;-79
2022/09/12 07:51:22;;;;;;;8.48;7.10;;;;;;;19.45;65.17;96767.81;6193312;23;20045;-80
2022/09/12 07:53:50;;;;;;;8.48;7.00;;;;;;;19.73;63.84;96768.91;6193833;23;20047;-78
2022/09/12 07:56:19;;;;;;;7.50;6.57;;;;;;;20.09;63.46;96767.69;6194805;23;20112;-78
2022/09/12 07:58:48;;;;;;;6.93;5.97;;;;;;;20.49;62.27;96768.66;6193750;23;20025;-80
2022/09/12 08:01:17;;;;;;;6.45;5.80;;;;;;;20.94;61.76;96765.91;6192763;23;20059;-77
2022/09/12 08:03:46;;;;;;;6.18;5.00;;;;;;;21.47;60.04;96770.84;6193115;23;20025;-77
2022/09/12 08:06:18;;;;;;;8.48;5.22;;;;;;;21.96;56.32;96768.22;6191790;23;20016;-78
2022/09/12 08:08:47;;;;;;;5.53;3.47;;;;;;;22.49;55.57;96766.59;6192248;23;20048;-77
2022/09/12 08:11:17;;;;;;;9.45;2.38;;;;;;;22.99;51.34;96765.38;6188190;23;20035;-79
2022/09/12 08:13:45;;;;;;;2.08;1.92;;;;;;;23.55;49.50;96774.72;6189455;23;20025;-79
2022/09/12 08:16:21;;;;;;;1.73;1.60;;;;;;;24.11;47.04;96774.91;6189542;23;20025;-79
2022/09/12 08:18:50;;;;;;;1.60;1.48;;;;;;;24.61;46.99;96776.03;6190426;23;20025;-77
2022/09/12 08:21:21;;;;;;;2.28;2.08;;;;;;;25.06;43.37;96778.94;6189855;23;20475;-78
2022/09/12 08:23:52;;;;;;;1.60;1.50;;;;;;;25.39;42.57;96772.19;6190742;23;20017;-78
2022/09/12 08:26:20;;;;;;;1.70;1.60;;;;;;;25.72;42.19;96774.47;6189089;23;20043;-78
2022/09/12 08:28:48;;;;;;;1.90;1.63;;;;;;;26.04;42.07;96776.69;6189429;23;20031;-78
2022/09/12 08:31:18;;;;;;;2.95;1.90;;;;;;;26.41;40.83;96776.19;6188554;23;20025;-80
2022/09/12 08:33:45;;;;;;;1.83;1.30;;;;;;;26.79;40.90;96781.00;6192104;23;20032;-77
2022/09/12 08:36:15;;;;;;;1.55;1.45;;;;;;;27.16;40.16;96777.69;6194953;23;20024;-77
2022/09/12 08:38:46;;;;;;;1.50;1.40;;;;;;;27.57;38.49;96777.25;6195344;23;20081;-77
2022/09/12 08:41:23;;;;;;;1.52;1.27;;;;;;;28.01;38.21;96772.69;6195749;23;20017;-77
2022/09/12 08:44:12;;;;;;;2.03;1.50;;;;;;;28.40;37.00;96775.03;6194245;23;20021;-78
2022/09/12 08:46:50;;;;;;;3.60;1.90;;;;;;;28.71;35.41;96775.41;6195120;23;20021;-79
2022/09/12 08:49:25;;;;;;;1.23;1.23;;;;;;;28.94;35.38;96762.91;6193900;23;20024;-78
2022/09/12 08:51:54;;;;;;;1.83;1.48;;;;;;;29.20;35.21;96767.84;6193223;23;20107;-79
2022/09/12 08:54:27;;;;;;;3.30;1.73;;;;;;;29.50;34.21;96779.88;6193391;23;20017;-80
2022/09/12 08:57:01;;;;;;;2.78;1.50;;;;;;;29.72;33.63;96764.97;6193557;23;20059;-78
2022/09/12 08:59:35;;;;;;;3.40;1.60;;;;;;;29.92;33.54;96764.50;6191787;23;20027;-77
2022/09/12 09:02:14;;;;;;;1.25;1.25;;;;;;;30.17;33.01;96762.34;6193085;23;20059;-76
2022/09/12 09:04:50;;;;;;;2.03;1.45;;;;;;;30.69;33.09;96764.63;6194914;23;20100;-78
2022/09/12 09:07:38;;;;;;;2.97;1.50;;;;;;;31.21;31.25;96764.91;6195138;23;20536;-79
2022/09/12 09:10:22;;;;;;;2.67;1.83;;;;;;;31.66;30.38;96763.97;6192763;23;20052;-78
2022/09/12 09:12:57;;;;;;;1.50;1.40;;;;;;;32.08;29.70;96759.75;6194073;23;20096;-78
2022/09/12 09:15:44;;;;;;;1.55;1.45;;;;;;;32.53;30.16;96754.03;6193613;23;20104;-77
2022/09/12 09:18:18;;;;;;;1.65;1.10;;;;;;;33.06;29.58;96762.81;6195426;23;20021;-77
2022/09/12 09:20:51;;;;;;;1.13;1.08;;;;;;;33.57;27.66;96760.19;6194746;23;20390;-78
2022/09/12 09:23:23;;;;;;;2.55;1.60;;;;;;;33.91;27.12;96756.50;6195022;23;20025;-77
2022/09/12 09:25:55;;;;;;;;;;;;;;;34.25;28.77;96755.47;6195969;23;20017;-79
2022/09/12 09:28:28;;;;;;;3.10;1.25;;;;;;;34.63;25.88;96765.31;6193879;23;19916;-79
2022/09/12 09:30:57;;;;;;;1.20;1.00;;;;;;;34.91;25.41;96758.50;6194369;23;20077;-80
2022/09/12 09:33:27;;;;;;;1.30;1.20;;;;;;;35.03;25.03;96758.50;6196004;23;20021;-78
2022/09/12 09:36:13;;;;;;;2.85;1.10;;;;;;;35.35;25.30;96756.09;6196823;23;20024;-78
2022/09/12 09:38:48;;;;;;;2.72;1.25;;;;;;;35.95;24.28;96750.94;6197724;23;20353;-79
2022/09/12 09:41:35;;;;;;;2.53;2.03;;;;;;;36.48;25.20;96747.03;6196515;23;20029;-78
2022/09/12 09:44:03;;;;;;;1.23;1.08;;;;;;;37.09;24.04;96742.44;6198478;23;20029;-78
2022/09/12 09:46:32;;;;;;;1.77;1.30;;;;;;;37.63;22.36;96749.94;6198087;23;20335;-78
2022/09/12 09:49:02;;;;;;;2.67;1.02;;;;;;;38.05;21.89;96735.66;6196022;23;20029;-78
2022/09/12 09:51:35;;;;;;;1.35;0.95;;;;;;;38.60;23.55;96741.03;6195786;23;20072;-79
2022/09/12 09:54:11;;;;;;;3.90;1.20;;;;;;;39.01;20.35;96738.66;6195240;23;20023;-79
2022/09/12 09:56:41;;;;;;;1.08;1.08;;;;;;;39.19;19.93;96738.94;6198169;23;20048;-79
2022/09/12 09:59:11;;;;;;;1.15;1.15;;;;;;;39.69;19.88;96739.69;6198499;23;20021;-78
2022/09/12 10:01:45;;;;;;;1.10;1.02;;;;;;;40.16;19.18;96729.38;6198648;23;20017;-79
2022/09/12 10:04:20;;;;;;;1.65;0.68;;;;;;;40.70;19.43;96728.00;6197290;23;20021;-77
2022/09/12 10:06:51;;;;;;;1.17;1.00;;;;;;;41.17;18.16;96737.44;6192411;23;20027;-78
2022/09/12 10:09:24;;;;;;;0.82;0.82;;;;;;;41.47;17.78;96733.75;6198377;23;20079;-80
2022/09/12 10:11:55;;;;;;;0.85;0.85;;;;;;;41.84;17.41;96734.78;6195376;23;20027;-79
2022/09/12 10:14:37;;;;;;;1.67;0.80;;;;;;;42.30;17.33;96728.72;6193220;23;20025;-77
2022/09/12 10:17:28;;;;;;;1.33;1.00;;;;;;;42.69;16.62;96734.28;6192518;23;20025;-77
2022/09/12 10:20:01;;;;;;;2.53;0.90;;;;;;;43.00;15.88;96724.53;6188845;23;20036;-79
2022/09/12 10:22:49;;;;;;;1.35;0.73;;;;;;;43.08;15.47;96728.06;6189017;23;20024;-82
2022/09/12 10:25:19;;;;;;;2.97;0.90;;;;;;;43.02;15.70;96723.38;6190183;23;20029;-79
2022/09/12 10:27:54;;;;;;;0.82;0.60;;;;;;;42.68;15.60;96720.97;6204188;23;20671;-80
2022/09/12 10:30:23;;;;;;;1.25;1.10;;;;;;;42.43;16.05;96721.72;6199012;23;20028;-81
2022/09/12 10:32:53;;;;;;;0.88;0.88;;;;;;;42.30;15.75;96718.53;6198062;23;20021;-80
2022/09/12 10:35:22;;;;;;;0.85;0.85;;;;;;;42.37;16.07;96715.00;6196541;23;20020;-80
2022/09/12 10:37:54;;;;;;;1.40;1.10;;;;;;;42.45;15.58;96713.09;6194252;23;20025;-81
2022/09/12 10:40:24;;;;;;;2.50;0.80;;;;;;;42.56;15.83;96720.16;6189578;23;20461;-81
2022/09/12 10:42:55;;;;;;;1.20;1.10;;;;;;;43.12;15.91;96715.13;6196439;23;20017;-81
2022/09/12 10:45:26;;;;;;;1.10;0.90;;;;;;;43.73;15.39;96720.53;6195281;23;20044;-80
2022/09/12 10:47:57;;;;;;;0.90;0.90;;;;;;;43.99;14.86;96721.22;6194358;23;20025;-80
2022/09/12 10:50:28;;;;;;;0.93;0.80;;;;;;;43.90;14.90;96716.16;6192376;23;20099;-80
2022/09/12 10:53:13;;;;;;;1.05;1.05;;;;;;;43.97;14.62;96713.38;6193208;23;20052;-80
2022/09/12 10:55:47;;;;;;;1.10;1.10;;;;;;;43.92;15.16;96718.53;6185525;23;20063;-80
2022/09/12 10:58:31;;;;;;;1.40;0.80;;;;;;;43.46;15.80;96709.22;6185715;23;20021;-80
2022/09/12 11:01:08;;;;;;;2.40;1.15;;;;;;;43.44;15.18;96706.06;6185042;23;20032;-80
2022/09/12 11:03:58;;;;;;;1.00;1.00;;;;;;;43.67;15.03;96708.41;6185855;23;20021;-80
2022/09/12 11:06:35;;;;;;;2.42;0.90;;;;;;;43.83;14.47;96710.69;6186423;23;20410;-80
2022/09/12 11:09:09;;;;;;;1.10;1.10;;;;;;;43.84;14.78;96711.47;6186462;23;20108;-80
2022/09/12 11:11:52;;;;;;;1.33;1.23;;;;;;;43.84;15.91;96714.22;6186092;23;20024;-80
2022/09/12 11:14:34;;;;;;;1.33;1.00;;;;;;;43.86;14.74;96706.38;6186464;23;20024;-79
2022/09/12 11:17:04;;;;;;;;;;;;;;;43.97;15.48;96704.34;6188051;23;20021;-79
2022/09/12 11:19:49;;;;;;;1.73;1.27;;;;;;;43.53;14.66;96700.16;6186614;23;19923;-78
2022/09/12 11:22:29;;;;;;;0.90;0.90;;;;;;;43.14;15.42;96687.28;6188060;23;20491;-79
2022/09/12 11:25:07;;;;;;;;;;;;;;;42.93;16.81;96679.88;6190709;23;20025;-78
2022/09/12 11:27:49;;;;;;;1.48;1.00;;;;;;;42.47;17.21;96683.34;6189928;23;19924;-79
2022/09/12 11:30:18;;;;;;;1.00;1.00;;;;;;;41.84;16.10;96675.28;6189967;23;20116;-80
2022/09/12 11:32:58;;;;;;;1.08;0.93;;;;;;;40.99;16.66;96670.84;6192781;23;20028;-79
2022/09/12 11:35:28;;;;;;;1.00;1.00;;;;;;;39.92;17.25;96670.56;6193816;23;20017;-79
2022/09/12 11:38:19;;;;;;;0.98;0.98;;;;;;;39.04;19.95;96671.66;6194404;23;20025;-79
2022/09/12 11:40:53;;;;;;;0.93;0.93;;;;;;;38.46;18.40;96673.38;6168536;23;20626;-79
2022/09/12 11:43:29;;;;;;;0.75;0.75;;;;;;;37.78;18.90;96674.00;6195946;23;20095;-78
2022/09/12 11:46:06;;;;;;;10.73;1.30;;;;;;;37.21;19.02;96670.81;6196637;23;20025;-77
2022/09/12 11:48:43;;;;;;;0.68;0.68;;;;;;;36.51;19.46;96664.81;6197283;23;20032;-78
2022/09/12 11:51:18;;;;;;;1.05;0.95;;;;;;;35.89;21.27;96660.81;6195867;23;20023;-77
2022/09/12 11:53:58;;;;;;;3.38;0.90;;;;;;;35.42;20.67;96658.66;6197957;23;20401;-83